createdAt,value
2017-04-19T00:00:13.071Z,28.42
2017-04-19T00:01:22.143Z,28.62
2017-04-19T00:02:31.183Z,28.42
2017-04-19T00:03:40.178Z,28.62
2017-04-19T00:04:49.523Z,28.42
2017-04-19T00:05:58.257Z,28.81
2017-04-19T00:07:06.983Z,28.62
2017-04-19T00:08:15.748Z,28.33
2017-04-19T00:09:25.721Z,28.52
2017-04-19T00:10:35.104Z,28.42
2017-04-19T00:11:43.854Z,28.72
2017-04-19T00:12:52.821Z,28.62
2017-04-19T00:14:01.868Z,28.72
2017-04-19T00:15:11.505Z,28.62
2017-04-19T00:16:20.268Z,28.42
2017-04-19T00:17:29.028Z,28.52
2017-04-19T00:18:37.784Z,28.72
2017-04-19T00:19:47.474Z,28.52
2017-04-19T00:20:56.551Z,28.52
2017-04-19T00:22:05.311Z,28.72
2017-04-19T00:23:14.368Z,28.72
2017-04-19T00:24:24.041Z,28.52
2017-04-19T00:25:33.111Z,28.52
2017-04-19T00:26:41.876Z,28.8
2017-04-19T00:27:50.611Z,28.52
2017-04-19T00:28:59.714Z,28.62
2017-04-19T00:30:08.440Z,28.51
2017-04-19T00:31:17.475Z,28.7
2017-04-19T00:32:27.003Z,28.51
2017-04-19T00:33:36.065Z,28.81
2017-04-19T00:34:45.381Z,28.99
2017-04-19T00:35:54.244Z,28.51
2017-04-19T00:37:03.053Z,28.61
2017-04-19T00:38:12.537Z,28.52
2017-04-19T00:39:21.564Z,28.51
2017-04-19T00:40:30.636Z,28.61
2017-04-19T00:41:39.699Z,28.8
2017-04-19T00:42:48.761Z,28.8
2017-04-19T00:43:57.731Z,28.91
2017-04-19T00:45:06.488Z,28.8
2017-04-19T00:46:15.566Z,28.89
2017-04-19T00:47:24.327Z,28.41
2017-04-19T00:48:33.709Z,28.51
2017-04-19T00:49:42.778Z,28.7
2017-04-19T00:50:51.849Z,28.99
2017-04-19T00:52:00.610Z,28.99
2017-04-19T00:53:09.980Z,28.51
2017-04-19T00:54:20.273Z,28.89
2017-04-19T00:55:29.043Z,29.18
2017-04-19T00:56:37.812Z,28.99
2017-04-19T00:57:46.562Z,28.61
2017-04-19T00:58:55.590Z,28.99
2017-04-19T01:00:04.956Z,28.89
2017-04-19T01:01:14.021Z,28.99
2017-04-19T01:02:23.074Z,29.18
2017-04-19T01:03:31.847Z,28.8
2017-04-19T01:04:41.220Z,28.99
2017-04-19T01:05:49.989Z,28.7
2017-04-19T01:06:59.061Z,28.8
2017-04-19T01:08:08.137Z,28.89
2017-04-19T01:09:16.890Z,28.61
2017-04-19T01:10:25.959Z,29.08
2017-04-19T01:11:34.730Z,28.8
2017-04-19T01:12:43.837Z,29.18
2017-04-19T01:13:53.507Z,28.99
2017-04-19T01:15:02.558Z,28.99
2017-04-19T01:16:11.628Z,28.99
2017-04-19T01:17:20.721Z,28.61
2017-04-19T01:18:29.795Z,29.08
2017-04-19T01:19:39.456Z,28.8
2017-04-19T01:20:48.232Z,28.89
2017-04-19T01:21:56.998Z,28.8
2017-04-19T01:23:05.765Z,28.89
2017-04-19T01:24:14.815Z,28.7
2017-04-19T01:25:24.469Z,28.8
2017-04-19T01:26:33.525Z,28.61
2017-04-19T01:27:42.484Z,28.8
2017-04-19T01:28:51.553Z,28.7
2017-04-19T01:30:00.923Z,28.7
2017-04-19T01:31:09.965Z,28.7
2017-04-19T01:32:18.994Z,28.7
2017-04-19T01:33:28.373Z,28.7
2017-04-19T01:34:37.411Z,29.08
2017-04-19T01:35:46.482Z,28.7
2017-04-19T01:36:55.247Z,28.89
2017-04-19T01:38:04.008Z,28.8
2017-04-19T01:39:13.373Z,28.8
2017-04-19T01:40:22.738Z,28.61
2017-04-19T01:41:31.480Z,28.61
2017-04-19T01:42:40.810Z,28.61
2017-04-19T01:43:50.782Z,28.89
2017-04-19T01:44:59.951Z,28.7
2017-04-19T01:46:09.319Z,28.7
2017-04-19T01:47:18.703Z,28.7
2017-04-19T01:48:27.779Z,28.89
2017-04-19T01:49:37.337Z,29.08
2017-04-19T01:50:46.376Z,28.99
2017-04-19T01:51:55.144Z,28.61
2017-04-19T01:53:03.908Z,28.7
2017-04-19T01:54:12.958Z,29.08
2017-04-19T01:55:21.887Z,28.51
2017-04-19T01:56:31.259Z,28.99
2017-04-19T01:57:40.622Z,28.51
2017-04-19T01:58:49.685Z,28.89
2017-04-19T01:59:59.067Z,28.7
2017-04-19T02:01:08.134Z,28.8
2017-04-19T02:02:16.907Z,28.7
2017-04-19T02:03:26.279Z,28.61
2017-04-19T02:04:35.035Z,28.89
2017-04-19T02:05:43.779Z,28.99
2017-04-19T02:06:52.824Z,28.61
2017-04-19T02:08:01.841Z,29.08
2017-04-19T02:09:11.223Z,28.51
2017-04-19T02:10:19.978Z,28.61
2017-04-19T02:11:29.011Z,28.89
2017-04-19T02:12:37.725Z,28.51
2017-04-19T02:13:46.778Z,28.99
2017-04-19T02:14:55.561Z,29.07
2017-04-19T02:16:04.592Z,28.99
2017-04-19T02:17:14.254Z,28.41
2017-04-19T02:18:23.008Z,29.08
2017-04-19T02:19:32.373Z,28.41
2017-04-19T02:20:41.111Z,28.51
2017-04-19T02:21:50.131Z,28.4
2017-04-19T02:22:58.893Z,28.4
2017-04-19T02:24:07.975Z,28.51
2017-04-19T02:25:17.043Z,28.97
2017-04-19T02:26:25.841Z,28.97
2017-04-19T02:27:34.898Z,28.97
2017-04-19T02:28:43.973Z,28.49
2017-04-19T02:29:53.670Z,29.17
2017-04-19T02:31:02.831Z,28.97
2017-04-19T02:32:11.821Z,29.27
2017-04-19T02:33:21.181Z,28.78
2017-04-19T02:34:30.753Z,29.07
2017-04-19T02:35:39.814Z,29.07
2017-04-19T02:36:48.580Z,28.97
2017-04-19T02:37:57.641Z,29.07
2017-04-19T02:39:06.686Z,29.27
2017-04-19T02:40:15.714Z,29.17
2017-04-19T02:41:24.483Z,28.59
2017-04-19T02:42:33.252Z,29.36
2017-04-19T02:43:42.315Z,29.36
2017-04-19T02:44:51.680Z,29.27
2017-04-19T02:46:01.608Z,29.27
2017-04-19T02:47:10.978Z,29.07
2017-04-19T02:48:20.669Z,28.88
2017-04-19T02:49:30.351Z,28.97
2017-04-19T02:50:39.726Z,29.27
2017-04-19T02:51:48.486Z,29.36
2017-04-19T02:52:57.856Z,29.36
2017-04-19T02:54:06.920Z,28.88
2017-04-19T02:55:15.998Z,29.17
2017-04-19T02:56:25.358Z,29.27
2017-04-19T02:57:34.700Z,28.78
2017-04-19T02:58:43.778Z,28.97
2017-04-19T02:59:53.347Z,28.97
2017-04-19T03:01:02.104Z,28.97
2017-04-19T03:02:10.815Z,29.07
2017-04-19T03:03:19.835Z,29.36
2017-04-19T03:04:29.211Z,28.88
2017-04-19T03:05:38.585Z,29.07
2017-04-19T03:06:48.283Z,29.07
2017-04-19T03:07:57.359Z,28.97
2017-04-19T03:09:06.433Z,29.17
2017-04-19T03:10:15.199Z,29.17
2017-04-19T03:11:24.579Z,29.27
2017-04-19T03:12:33.344Z,29.07
2017-04-19T03:13:42.120Z,28.88
2017-04-19T03:14:51.988Z,28.97
2017-04-19T03:16:01.611Z,29.17
2017-04-19T03:17:10.383Z,29.07
2017-04-19T03:18:19.209Z,29.27
2017-04-19T03:19:28.656Z,28.88
2017-04-19T03:20:37.721Z,28.88
2017-04-19T03:21:46.829Z,28.78
2017-04-19T03:22:56.508Z,29.17
2017-04-19T03:24:05.592Z,28.88
2017-04-19T03:25:14.352Z,28.78
2017-04-19T03:26:23.105Z,29.17
2017-04-19T03:27:31.866Z,29.27
2017-04-19T03:28:40.944Z,28.88
2017-04-19T03:29:50.013Z,29.17
2017-04-19T03:30:59.175Z,28.97
2017-04-19T03:32:08.555Z,28.88
2017-04-19T03:33:17.620Z,28.88
2017-04-19T03:34:26.388Z,29.17
2017-04-19T03:35:35.142Z,29.17
2017-04-19T03:36:44.210Z,28.88
2017-04-19T03:37:53.572Z,28.88
2017-04-19T03:39:02.334Z,29.17
2017-04-19T03:40:11.396Z,28.88
2017-04-19T03:41:20.127Z,29.17
2017-04-19T03:42:28.827Z,29.27
2017-04-19T03:43:37.546Z,29.07
2017-04-19T03:44:46.281Z,29.07
2017-04-19T03:45:55.279Z,28.97
2017-04-19T03:47:04.020Z,29.17
2017-04-19T03:48:12.791Z,29.07
2017-04-19T03:49:22.106Z,29.07
2017-04-19T03:50:30.867Z,29.27
2017-04-19T03:51:40.243Z,29.17
2017-04-19T03:52:49.000Z,29.36
2017-04-19T03:53:58.342Z,29.07
2017-04-19T03:55:07.072Z,28.97
2017-04-19T03:56:16.119Z,28.88
2017-04-19T03:57:24.821Z,28.69
2017-04-19T03:58:33.877Z,28.59
2017-04-19T03:59:43.257Z,28.97
2017-04-19T04:00:52.029Z,28.49
2017-04-19T04:02:01.098Z,28.4
2017-04-19T04:03:10.474Z,28.4
2017-04-19T04:04:19.840Z,28.97
2017-04-19T04:05:29.318Z,29.07
2017-04-19T04:06:38.482Z,28.97
2017-04-19T04:07:47.629Z,28.78
2017-04-19T04:08:56.395Z,28.69
2017-04-19T04:10:05.169Z,28.88
2017-04-19T04:11:14.543Z,28.59
2017-04-19T04:12:23.611Z,28.69
2017-04-19T04:13:33.288Z,28.69
2017-04-19T04:14:42.027Z,28.69
2017-04-19T04:15:51.057Z,28.59
2017-04-19T04:17:00.170Z,28.59
2017-04-19T04:18:09.231Z,28.59
2017-04-19T04:19:18.306Z,28.97
2017-04-19T04:20:27.048Z,29.07
2017-04-19T04:21:35.801Z,28.97
2017-04-19T04:22:44.859Z,29.17
2017-04-19T04:23:54.226Z,28.78
2017-04-19T04:25:03.609Z,28.69
2017-04-19T04:26:12.578Z,28.78
2017-04-19T04:27:21.340Z,28.97
2017-04-19T04:28:30.103Z,29.07
2017-04-19T04:29:39.177Z,28.4
2017-04-19T04:30:47.960Z,28.59
2017-04-19T04:31:57.196Z,28.78
2017-04-19T04:33:06.533Z,28.78
2017-04-19T04:34:15.890Z,28.3
2017-04-19T04:35:24.649Z,28.59
2017-04-19T04:36:33.411Z,28.78
2017-04-19T04:37:42.782Z,28.49
2017-04-19T04:38:51.557Z,28.4
2017-04-19T04:40:00.311Z,28.49
2017-04-19T04:41:09.985Z,28.4
2017-04-19T04:42:18.720Z,28.4
2017-04-19T04:43:27.758Z,28.49
2017-04-19T04:44:36.482Z,28.49
2017-04-19T04:45:45.552Z,28.4
2017-04-19T04:46:54.620Z,28.49
2017-04-19T04:48:03.686Z,28.78
2017-04-19T04:49:12.419Z,28.49
2017-04-19T04:50:21.625Z,28.69
2017-04-19T04:51:30.491Z,28.49
2017-04-19T04:52:39.853Z,28.49
2017-04-19T04:53:48.758Z,28.3
2017-04-19T04:54:57.937Z,28.69
2017-04-19T04:56:06.963Z,28.4
2017-04-19T04:57:16.032Z,28.59
2017-04-19T04:58:24.796Z,28.41
2017-04-19T04:59:33.553Z,28.69
2017-04-19T05:00:42.597Z,28.41
2017-04-19T05:01:51.322Z,28.61
2017-04-19T05:03:00.385Z,28.49
2017-04-19T05:04:09.428Z,28.8
2017-04-19T05:05:18.149Z,28.22
2017-04-19T05:06:26.904Z,28.51
2017-04-19T05:07:35.978Z,28.41
2017-04-19T05:08:44.743Z,28.41
2017-04-19T05:09:54.107Z,28.51
2017-04-19T05:11:02.870Z,28.31
2017-04-19T05:12:11.934Z,28.31
2017-04-19T05:13:20.700Z,28.13
2017-04-19T05:14:29.762Z,28.03
2017-04-19T05:15:38.529Z,28.13
2017-04-19T05:16:47.296Z,28.13
2017-04-19T05:17:56.347Z,28.03
2017-04-19T05:19:05.422Z,28.13
2017-04-19T05:20:14.624Z,28.22
2017-04-19T05:21:23.987Z,28.31
2017-04-19T05:22:32.737Z,28.13
2017-04-19T05:23:42.103Z,28.13
2017-04-19T05:24:50.860Z,28.31
2017-04-19T05:26:00.113Z,28.31
2017-04-19T05:27:08.848Z,28.31
2017-04-19T05:28:18.182Z,28.22
2017-04-19T05:29:27.207Z,28.13
2017-04-19T05:30:35.974Z,28.22
2017-04-19T05:31:44.929Z,28.31
2017-04-19T05:32:54.000Z,28.03
2017-04-19T05:34:03.061Z,27.93
2017-04-19T05:35:11.823Z,27.93
2017-04-19T05:36:20.587Z,28.13
2017-04-19T05:37:29.351Z,28.03
2017-04-19T05:38:38.635Z,28.41
2017-04-19T05:39:47.383Z,27.85
2017-04-19T05:40:56.499Z,27.85
2017-04-19T05:42:05.532Z,27.75
2017-04-19T05:43:14.956Z,27.66
2017-04-19T05:44:24.332Z,27.75
2017-04-19T05:45:33.396Z,27.75
2017-04-19T05:46:42.762Z,27.56
2017-04-19T05:47:52.437Z,27.66
2017-04-19T05:49:01.208Z,27.56
2017-04-19T05:50:10.584Z,27.85
2017-04-19T05:51:19.643Z,27.94
2017-04-19T05:52:29.306Z,27.56
2017-04-19T05:53:38.068Z,27.56
2017-04-19T05:54:47.132Z,27.75
2017-04-19T05:55:56.297Z,27.75
2017-04-19T05:57:05.043Z,27.48
2017-04-19T05:58:13.737Z,27.56
2017-04-19T05:59:22.469Z,27.46
2017-04-19T06:00:31.532Z,27.46
2017-04-19T06:01:40.297Z,27.66
2017-04-19T06:02:49.647Z,27.27
2017-04-19T06:03:58.363Z,27.48
2017-04-19T06:05:07.104Z,27.38
2017-04-19T06:06:16.134Z,27.48
2017-04-19T06:07:25.508Z,27.19
2017-04-19T06:08:34.579Z,27.38
2017-04-19T06:09:43.625Z,27.19
2017-04-19T06:10:52.355Z,27.28
2017-04-19T06:12:01.084Z,27.19
2017-04-19T06:13:10.111Z,27.19
2017-04-19T06:14:19.027Z,27.09
2017-04-19T06:15:28.091Z,27.38
2017-04-19T06:16:36.855Z,27.19
2017-04-19T06:17:45.919Z,27.09
2017-04-19T06:18:55.592Z,27.09
2017-04-19T06:20:04.979Z,26.8
2017-04-19T06:21:13.738Z,27.09
2017-04-19T06:22:22.503Z,27.09
2017-04-19T06:23:31.568Z,27.09
2017-04-19T06:24:40.701Z,26.9
2017-04-19T06:25:49.437Z,27.11
2017-04-19T06:26:58.565Z,27
2017-04-19T06:28:08.242Z,26.91
2017-04-19T06:29:17.316Z,26.8
2017-04-19T06:30:26.074Z,26.9
2017-04-19T06:31:35.142Z,27.01
2017-04-19T06:32:43.902Z,26.72
2017-04-19T06:33:52.978Z,26.72
2017-04-19T06:35:02.019Z,26.81
2017-04-19T06:36:11.051Z,26.91
2017-04-19T06:37:20.105Z,26.91
2017-04-19T06:38:28.842Z,26.72
2017-04-19T06:39:38.163Z,26.72
2017-04-19T06:40:47.403Z,26.72
2017-04-19T06:41:56.119Z,26.91
2017-04-19T06:43:04.887Z,26.72
2017-04-19T06:44:13.932Z,26.72
2017-04-19T06:45:22.626Z,26.53
2017-04-19T06:46:31.356Z,26.14
2017-04-19T06:47:40.439Z,26.91
2017-04-19T06:48:49.470Z,26.23
2017-04-19T06:49:58.494Z,26.33
2017-04-19T06:51:07.558Z,26.81
2017-04-19T06:52:16.339Z,26.33
2017-04-19T06:53:25.407Z,26.81
2017-04-19T06:54:34.787Z,26.81
2017-04-19T06:55:43.828Z,26.81
2017-04-19T06:56:52.552Z,26.14
2017-04-19T06:58:01.517Z,26.72
2017-04-19T06:59:10.583Z,26.81
2017-04-19T07:00:19.647Z,26.14
2017-04-19T07:01:28.412Z,26.82
2017-04-19T07:02:37.695Z,26.72
2017-04-19T07:03:46.756Z,26.53
2017-04-19T07:04:55.524Z,26.54
2017-04-19T07:06:04.589Z,26.54
2017-04-19T07:07:13.344Z,26.54
2017-04-19T07:08:22.921Z,26.15
2017-04-19T07:09:31.688Z,26.44
2017-04-19T07:10:40.730Z,26.06
2017-04-19T07:11:49.729Z,25.86
2017-04-19T07:12:58.454Z,25.96
2017-04-19T07:14:07.208Z,25.96
2017-04-19T07:15:16.595Z,26.15
2017-04-19T07:16:26.811Z,26.06
2017-04-19T07:17:35.548Z,26.25
2017-04-19T07:18:44.271Z,26.44
2017-04-19T07:19:53.618Z,26.25
2017-04-19T07:21:02.687Z,26.44
2017-04-19T07:22:11.417Z,26.15
2017-04-19T07:23:20.742Z,25.76
2017-04-19T07:24:30.113Z,25.76
2017-04-19T07:25:38.901Z,26.15
2017-04-19T07:26:47.959Z,26.06
2017-04-19T07:27:57.288Z,26.15
2017-04-19T07:29:06.046Z,26.44
2017-04-19T07:30:15.107Z,26.25
2017-04-19T07:31:23.876Z,26.44
2017-04-19T07:32:33.235Z,25.86
2017-04-19T07:33:42.313Z,25.86
2017-04-19T07:34:51.262Z,26.25
2017-04-19T07:35:59.977Z,26.25
2017-04-19T07:37:08.747Z,26.15
2017-04-19T07:38:17.822Z,25.96
2017-04-19T07:39:26.625Z,25.86
2017-04-19T07:40:35.375Z,25.96
2017-04-19T07:41:44.747Z,25.96
2017-04-19T07:42:53.818Z,25.67
2017-04-19T07:44:02.897Z,25.86
2017-04-19T07:45:11.964Z,25.76
2017-04-19T07:46:21.030Z,25.76
2017-04-19T07:47:30.109Z,25.67
2017-04-19T07:48:39.183Z,25.38
2017-04-19T07:49:48.259Z,25.48
2017-04-19T07:50:57.669Z,25.28
2017-04-19T07:52:06.747Z,25.38
2017-04-19T07:53:15.517Z,26.06
2017-04-19T07:54:24.578Z,25.38
2017-04-19T07:55:33.320Z,25.48
2017-04-19T07:56:42.310Z,25.67
2017-04-19T07:57:51.371Z,25.38
2017-04-19T07:59:00.492Z,26.06
2017-04-19T08:00:09.567Z,25.96
2017-04-19T08:01:18.643Z,25.28
2017-04-19T08:02:27.686Z,25.48
2017-04-19T08:03:36.499Z,25.96
2017-04-19T08:04:45.226Z,25.96
2017-04-19T08:05:54.537Z,26.06
2017-04-19T08:07:03.297Z,25.48
2017-04-19T08:08:12.061Z,26.15
2017-04-19T08:09:20.911Z,25.96
2017-04-19T08:10:29.637Z,25.67
2017-04-19T08:11:39.024Z,26.15
2017-04-19T08:12:47.779Z,26.17
2017-04-19T08:13:56.541Z,25.87
2017-04-19T08:15:05.916Z,25.86
2017-04-19T08:16:14.990Z,25.86
2017-04-19T08:17:23.757Z,25.68
2017-04-19T08:18:33.031Z,25.78
2017-04-19T08:19:42.098Z,25.78
2017-04-19T08:20:50.863Z,25.78
2017-04-19T08:21:59.620Z,25.1
2017-04-19T08:23:08.355Z,25.2
2017-04-19T08:24:17.382Z,25.87
2017-04-19T08:25:26.130Z,25.68
2017-04-19T08:26:34.850Z,25.78
2017-04-19T08:27:43.612Z,25.1
2017-04-19T08:28:52.580Z,25.87
2017-04-19T08:30:01.651Z,25.59
2017-04-19T08:31:10.723Z,25.39
2017-04-19T08:32:19.800Z,25.49
2017-04-19T08:33:29.167Z,25.59
2017-04-19T08:34:37.905Z,25.39
2017-04-19T08:35:46.914Z,25.2
2017-04-19T08:36:55.939Z,24.82
2017-04-19T08:38:04.920Z,24.92
2017-04-19T08:39:13.938Z,24.54
2017-04-19T08:40:23.157Z,24.92
2017-04-19T08:41:32.652Z,24.92
2017-04-19T08:42:41.968Z,25.02
2017-04-19T08:43:50.733Z,24.73
2017-04-19T08:44:59.486Z,24.73
2017-04-19T08:46:08.253Z,24.74
2017-04-19T08:47:17.299Z,24.26
2017-04-19T08:48:26.016Z,24.34
2017-04-19T08:49:35.077Z,24.74
2017-04-19T08:50:44.158Z,24.55
2017-04-19T08:51:52.917Z,24.26
2017-04-19T08:53:01.996Z,24.84
2017-04-19T08:54:11.070Z,24.55
2017-04-19T08:55:20.136Z,24.45
2017-04-19T08:56:29.203Z,24.26
2017-04-19T08:57:37.965Z,24.08
2017-04-19T08:58:47.027Z,24.07
2017-04-19T08:59:56.089Z,23.88
2017-04-19T09:01:04.828Z,23.79
2017-04-19T09:02:13.545Z,23.79
2017-04-19T09:03:22.612Z,23.5
2017-04-19T09:04:31.678Z,23.59
2017-04-19T09:05:40.744Z,23.79
2017-04-19T09:06:49.511Z,23.79
2017-04-19T09:07:58.231Z,23.4
2017-04-19T09:09:07.303Z,23.79
2017-04-19T09:10:16.075Z,23.69
2017-04-19T09:11:25.142Z,23.59
2017-04-19T09:12:34.222Z,23.88
2017-04-19T09:13:43.602Z,23.5
2017-04-19T09:14:52.657Z,23.59
2017-04-19T09:16:01.707Z,23.59
2017-04-19T09:17:10.434Z,23.88
2017-04-19T09:18:19.261Z,23.69
2017-04-19T09:19:28.059Z,23.79
2017-04-19T09:20:36.834Z,23.79
2017-04-19T09:21:45.896Z,23.69
2017-04-19T09:22:55.274Z,23.69
2017-04-19T09:24:04.042Z,23.59
2017-04-19T09:25:13.105Z,23.88
2017-04-19T09:26:21.860Z,23.59
2017-04-19T09:27:30.639Z,23.88
2017-04-19T09:28:39.711Z,23.59
2017-04-19T09:29:48.465Z,23.69
2017-04-19T09:30:57.524Z,23.4
2017-04-19T09:32:06.257Z,23.22
2017-04-19T09:33:15.014Z,23.12
2017-04-19T09:34:23.792Z,22.64
2017-04-19T09:35:32.553Z,22.06
2017-04-19T09:36:41.622Z,21.5
2017-04-19T09:37:50.445Z,20.83
2017-04-19T09:38:59.975Z,20.07
2017-04-19T09:40:09.051Z,19.98
2017-04-19T09:41:17.801Z,19.21
2017-04-19T09:42:26.876Z,18.73
2017-04-19T09:43:35.931Z,18.07
2017-04-19T09:44:44.699Z,17.4
2017-04-19T09:45:53.475Z,17.97
2017-04-19T09:47:02.858Z,18.07
2017-04-19T09:48:11.610Z,18.07
2017-04-19T09:49:21.291Z,18.26
2017-04-19T09:50:30.663Z,18.07
2017-04-19T09:51:39.435Z,17.68
2017-04-19T09:52:48.275Z,17.21
2017-04-19T09:53:57.048Z,17.02
2017-04-19T09:55:06.414Z,16.93
2017-04-19T09:56:15.457Z,17.31
2017-04-19T09:57:24.160Z,17.98
2017-04-19T09:58:33.187Z,17.58
2017-04-19T09:59:42.244Z,17.58
2017-04-19T10:00:50.978Z,17.89
2017-04-19T10:02:00.049Z,17.78
2017-04-19T10:03:09.111Z,17.11
2017-04-19T10:04:17.856Z,16.53
2017-04-19T10:05:26.789Z,16.15
2017-04-19T10:06:36.100Z,16.06
2017-04-19T10:07:44.923Z,16.17
2017-04-19T10:08:53.689Z,16.46
2017-04-19T10:10:02.447Z,16.74
2017-04-19T10:11:11.216Z,17.03
2017-04-19T10:12:20.277Z,17.41
2017-04-19T10:13:29.042Z,17.79
2017-04-19T10:14:37.806Z,17.88
2017-04-19T10:15:47.170Z,18.27
2017-04-19T10:16:55.937Z,18.27
2017-04-19T10:18:04.709Z,18.46
2017-04-19T10:19:13.774Z,18.46
2017-04-19T10:20:22.536Z,18.75
2017-04-19T10:21:31.312Z,18.65
2017-04-19T10:22:40.690Z,18.16
2017-04-19T10:23:49.755Z,18.16
2017-04-19T10:24:58.980Z,18.37
2017-04-19T10:26:07.745Z,18.27
2017-04-19T10:27:16.811Z,18.65
2017-04-19T10:28:25.637Z,19.13
2017-04-19T10:29:34.430Z,19.12
2017-04-19T10:30:43.503Z,19.42
2017-04-19T10:31:52.274Z,19.6
2017-04-19T10:33:01.393Z,19.89
2017-04-19T10:34:10.457Z,20.18
2017-04-19T10:35:19.834Z,20.37
2017-04-19T10:36:28.584Z,20.17
2017-04-19T10:37:37.319Z,20.46
2017-04-19T10:38:46.079Z,20.74
2017-04-19T10:39:55.149Z,21.03
2017-04-19T10:41:04.216Z,20.94
2017-04-19T10:42:12.980Z,21.22
2017-04-19T10:43:21.932Z,21.02
2017-04-19T10:44:31.510Z,20.55
2017-04-19T10:45:40.651Z,19.7
2017-04-19T10:46:49.556Z,19.9
2017-04-19T10:47:58.292Z,19.8
2017-04-19T10:49:07.021Z,18.73
2017-04-19T10:50:16.284Z,18.07
2017-04-19T10:51:25.319Z,18.08
2017-04-19T10:52:34.051Z,18.46
2017-04-19T10:53:42.821Z,18.66
2017-04-19T10:54:51.575Z,19.13
2017-04-19T10:56:00.636Z,19.13
2017-04-19T10:57:09.697Z,19.42
2017-04-19T10:58:18.451Z,19.7
2017-04-19T10:59:27.215Z,19.6
2017-04-19T11:00:36.286Z,20.37
2017-04-19T11:01:45.660Z,20.18
2017-04-19T11:02:54.439Z,20.37
2017-04-19T11:04:03.195Z,20.37
2017-04-19T11:05:12.273Z,20.65
2017-04-19T11:06:21.658Z,21.03
2017-04-19T11:07:30.428Z,20.94
2017-04-19T11:08:39.202Z,20.84
2017-04-19T11:09:48.260Z,20.94
2017-04-19T11:10:57.532Z,21.22
2017-04-19T11:12:06.602Z,21.7
2017-04-19T11:13:15.376Z,21.61
2017-04-19T11:14:24.138Z,21.41
2017-04-19T11:15:32.876Z,21.61
2017-04-19T11:16:41.602Z,21.22
2017-04-19T11:17:50.373Z,20.84
2017-04-19T11:18:59.140Z,20.65
2017-04-19T11:20:07.882Z,20.07
2017-04-19T11:21:16.616Z,20.27
2017-04-19T11:22:25.393Z,20.08
2017-04-19T11:23:34.455Z,20.37
2017-04-19T11:24:43.220Z,20.07
2017-04-19T11:25:52.562Z,20.85
2017-04-19T11:27:01.256Z,20.94
2017-04-19T11:28:10.894Z,20.94
2017-04-19T11:29:19.671Z,21.23
2017-04-19T11:30:28.427Z,21.22
2017-04-19T11:31:37.804Z,21.31
2017-04-19T11:32:46.835Z,21.41
2017-04-19T11:33:55.859Z,21.99
2017-04-19T11:35:04.925Z,21.8
2017-04-19T11:36:13.692Z,22.17
2017-04-19T11:37:22.737Z,22.17
2017-04-19T11:38:31.699Z,22.08
2017-04-19T11:39:40.447Z,22.08
2017-04-19T11:40:49.518Z,22.37
2017-04-19T11:41:58.283Z,22.08
2017-04-19T11:43:07.347Z,21.4
2017-04-19T11:44:16.428Z,20.45
2017-04-19T11:45:25.183Z,18.73
2017-04-19T11:46:34.231Z,17.3
2017-04-19T11:47:43.229Z,15.96
2017-04-19T11:48:52.870Z,15.78
2017-04-19T11:50:01.909Z,15.58
2017-04-19T11:51:11.238Z,15.98
2017-04-19T11:52:20.004Z,16.07
2017-04-19T11:53:29.372Z,16.16
2017-04-19T11:54:38.738Z,16.64
2017-04-19T11:55:47.808Z,16.15
2017-04-19T11:56:56.545Z,15.87
2017-04-19T11:58:05.907Z,15.69
2017-04-19T11:59:15.281Z,15.01
2017-04-19T12:00:24.351Z,14.43
2017-04-19T12:01:33.089Z,14.83
2017-04-19T12:02:41.782Z,15.02
2017-04-19T12:03:50.807Z,14.73
2017-04-19T12:05:00.494Z,14.92
2017-04-19T12:06:09.258Z,15.41
2017-04-19T12:07:17.988Z,15.5
2017-04-19T12:08:27.060Z,15.68
2017-04-19T12:09:35.833Z,16.46
2017-04-19T12:10:44.810Z,16.55
2017-04-19T12:11:53.578Z,16.94
2017-04-19T12:13:02.788Z,16.93
2017-04-19T12:14:12.154Z,17.52
2017-04-19T12:15:20.922Z,17.6
2017-04-19T12:16:29.687Z,17.98
2017-04-19T12:17:38.451Z,17.98
2017-04-19T12:18:47.524Z,18.56
2017-04-19T12:19:56.573Z,19.04
2017-04-19T12:21:05.588Z,19.04
2017-04-19T12:22:14.666Z,19.13
2017-04-19T12:23:23.723Z,19.02
2017-04-19T12:24:33.110Z,19.8
2017-04-19T12:25:41.871Z,19.7
2017-04-19T12:26:50.949Z,20.18
2017-04-19T12:27:59.684Z,20.08
2017-04-19T12:29:08.379Z,20.47
2017-04-19T12:30:17.101Z,20.65
2017-04-19T12:31:26.167Z,20.56
2017-04-19T12:32:34.938Z,20.95
2017-04-19T12:33:43.667Z,20.85
2017-04-19T12:34:52.688Z,20.95
2017-04-19T12:36:01.455Z,20.85
2017-04-19T12:37:10.522Z,21.33
2017-04-19T12:38:19.587Z,21.13
2017-04-19T12:39:28.355Z,21.61
2017-04-19T12:40:38.031Z,21.42
2017-04-19T12:41:46.791Z,21.71
2017-04-19T12:42:56.042Z,21.61
2017-04-19T12:44:05.072Z,21.81
2017-04-19T12:45:13.839Z,21.8
2017-04-19T12:46:22.581Z,21.89
2017-04-19T12:47:31.608Z,22
2017-04-19T12:48:40.355Z,21.7
2017-04-19T12:49:49.362Z,21.7
2017-04-19T12:50:58.390Z,22.28
2017-04-19T12:52:07.361Z,22.19
2017-04-19T12:53:16.372Z,22.09
2017-04-19T12:54:25.181Z,22.09
2017-04-19T12:55:33.864Z,21.88
2017-04-19T12:56:42.874Z,22.57
2017-04-19T12:57:52.090Z,22.66
2017-04-19T12:59:00.847Z,22.47
2017-04-19T13:00:09.926Z,22.47
2017-04-19T13:01:18.667Z,22.95
2017-04-19T13:02:27.733Z,22.66
2017-04-19T13:03:36.686Z,23.05
2017-04-19T13:04:45.455Z,22.95
2017-04-19T13:05:54.518Z,23.14
2017-04-19T13:07:03.746Z,23.33
2017-04-19T13:08:12.800Z,23.14
2017-04-19T13:09:22.179Z,23.13
2017-04-19T13:10:30.940Z,23.03
2017-04-19T13:11:39.703Z,23.03
2017-04-19T13:12:48.445Z,23.23
2017-04-19T13:13:57.177Z,23.33
2017-04-19T13:15:06.200Z,23.03
2017-04-19T13:16:15.235Z,23.23
2017-04-19T13:17:24.004Z,23.23
2017-04-19T13:18:32.769Z,23.05
2017-04-19T13:19:41.498Z,23.23
2017-04-19T13:20:50.219Z,23.03
2017-04-19T13:21:59.273Z,23.24
2017-04-19T13:23:08.298Z,23.33
2017-04-19T13:24:17.027Z,23.33
2017-04-19T13:25:26.001Z,23.23
2017-04-19T13:26:35.066Z,23.33
2017-04-19T13:27:43.794Z,23.42
2017-04-19T13:28:52.518Z,23.23
2017-04-19T13:30:01.553Z,23.23
2017-04-19T13:31:10.269Z,23.23
2017-04-19T13:32:19.005Z,23.13
2017-04-19T13:33:27.764Z,23.03
2017-04-19T13:34:36.837Z,23.03
2017-04-19T13:35:46.111Z,23.42
2017-04-19T13:36:54.879Z,23.23
2017-04-19T13:38:03.946Z,23.23
2017-04-19T13:39:12.709Z,23.52
2017-04-19T13:40:21.453Z,23.03
2017-04-19T13:41:30.310Z,22.94
2017-04-19T13:42:39.332Z,23.23
2017-04-19T13:43:48.678Z,23.42
2017-04-19T13:44:57.745Z,23.03
2017-04-19T13:46:06.781Z,23.33
2017-04-19T13:47:15.796Z,23.33
2017-04-19T13:48:24.552Z,23.23
2017-04-19T13:49:33.624Z,23.23
2017-04-19T13:50:42.704Z,23.42
2017-04-19T13:51:51.773Z,23.33
2017-04-19T13:53:00.502Z,23.33
2017-04-19T13:54:09.827Z,23.61
2017-04-19T13:55:18.585Z,23.61
2017-04-19T13:56:27.323Z,23.61
2017-04-19T13:57:36.039Z,23.61
2017-04-19T13:58:45.414Z,23.71
2017-04-19T13:59:54.773Z,23.23
2017-04-19T14:01:03.705Z,23.33
2017-04-19T14:02:12.706Z,23.52
2017-04-19T14:03:22.236Z,23.52
2017-04-19T14:04:31.603Z,23.6
2017-04-19T14:05:40.950Z,23.7
2017-04-19T14:06:49.659Z,23.6
2017-04-19T14:07:58.732Z,23.6
2017-04-19T14:09:07.488Z,23.9
2017-04-19T14:10:16.227Z,23.9
2017-04-19T14:11:25.258Z,23.41
2017-04-19T14:12:34.025Z,23.7
2017-04-19T14:13:42.776Z,23.41
2017-04-19T14:14:51.846Z,23.5
2017-04-19T14:16:00.889Z,23.8
2017-04-19T14:17:09.954Z,23.9
2017-04-19T14:18:19.026Z,23.8
2017-04-19T14:19:27.760Z,23.7
2017-04-19T14:20:36.763Z,23.9
2017-04-19T14:21:45.457Z,23.8
2017-04-19T14:22:54.185Z,23.9
2017-04-19T14:24:03.653Z,23.6
2017-04-19T14:25:12.421Z,23.6
2017-04-19T14:26:21.336Z,23.99
2017-04-19T14:27:30.546Z,23.8
2017-04-19T14:28:39.303Z,24.09
2017-04-19T14:29:48.064Z,24.18
2017-04-19T14:30:57.130Z,23.5
2017-04-19T14:32:06.426Z,24.28
2017-04-19T14:33:15.172Z,24.17
2017-04-19T14:34:23.894Z,23.8
2017-04-19T14:35:32.831Z,24.18
2017-04-19T14:36:41.854Z,24.18
2017-04-19T14:37:50.589Z,24.18
2017-04-19T14:38:59.918Z,24.28
2017-04-19T14:40:08.697Z,24.17
2017-04-19T14:41:17.423Z,24.28
2017-04-19T14:42:26.124Z,24.17
2017-04-19T14:43:35.149Z,24.09
2017-04-19T14:44:44.194Z,24.27
2017-04-19T14:45:52.956Z,24.17
2017-04-19T14:47:01.822Z,24.27
2017-04-19T14:48:10.583Z,23.98
2017-04-19T14:49:19.343Z,24.08
2017-04-19T14:50:28.720Z,24.08
2017-04-19T14:51:38.088Z,24.37